Time;durP1;ratioP1;P1;durP2;ratioP2;P2;SDS_P1;SDS_P2;PMS_P1;PMS_P2;Temp;Humidity;BMP_temperature;BMP_pressure;BME280_temperature;BME280_humidity;BME280_pressure;Samples;Min_cycle;Max_cycle;Signal;HPM_P1;HPM_P2
2023/11/25 00:02:48;;;;;;;55.17;45.95;;;;;;;;;;10065535;28;20092;-76
2023/11/25 00:07:40;;;;;;;55.88;44.92;;;;;;;;;;10065790;28;20068;-76
2023/11/25 00:12:32;;;;;;;55.40;44.03;;;;;;;;;;10065582;28;20433;-76
2023/11/25 00:17:28;;;;;;;58.65;48.22;;;;;;;;;;10064492;28;20051;-76
2023/11/25 00:22:22;;;;;;;58.72;46.42;;;;;;;;;;10064922;28;20072;-76
2023/11/25 00:27:14;;;;;;;59.75;48.15;;;;;;;;;;10066931;28;20041;-76
2023/11/25 00:32:07;;;;;;;66.50;48.55;;;;;;;;;;10064130;28;20045;-76
2023/11/25 00:36:59;;;;;;;62.85;50.85;;;;;;;;;;10066013;28;20041;-76
2023/11/25 00:41:55;;;;;;;64.32;51.00;;;;;;;;;;10064832;28;20077;-77
2023/11/25 00:46:47;;;;;;;61.33;49.00;;;;;;;;;;10065615;28;20049;-76
2023/11/25 00:51:39;;;;;;;69.55;55.17;;;;;;;;;;10063946;28;20812;-76
2023/11/25 00:56:31;;;;;;;61.92;51.97;;;;;;;;;;10064604;28;20041;-76
2023/11/25 01:01:25;;;;;;;81.22;55.97;;;;;;;;;;10063283;28;20049;-76
2023/11/25 01:06:17;;;;;;;64.85;52.05;;;;;;;;;;10079701;28;20041;-76
2023/11/25 01:11:08;;;;;;;65.93;51.95;;;;;;;;;;10062978;28;20084;-76
2023/11/25 01:16:00;;;;;;;61.55;50.10;;;;;;;;;;10063879;28;20531;-76
2023/11/25 01:20:55;;;;;;;65.20;51.60;;;;;;;;;;10063295;28;20052;-76
2023/11/25 01:25:49;;;;;;;62.45;50.78;;;;;;;;;;10063469;28;20077;-76
2023/11/25 01:30:44;;;;;;;61.45;46.25;;;;;;;;;;10063812;28;20415;-76
2023/11/25 01:35:39;;;;;;;69.97;51.40;;;;;;;;;;10063324;28;20061;-77
2023/11/25 01:40:32;;;;;;;68.70;54.30;;;;;;;;;;10062675;28;20052;-77
2023/11/25 01:45:25;;;;;;;70.65;51.55;;;;;;;;;;10061371;28;20045;-76
2023/11/25 01:50:16;;;;;;;70.20;51.65;;;;;;;;;;10063023;28;20041;-77
2023/11/25 01:55:09;;;;;;;67.82;52.20;;;;;;;;;;10062648;28;20453;-77
2023/11/25 02:00:07;;;;;;;68.88;56.42;;;;;;;;;;10050917;28;20115;-77
2023/11/25 02:05:02;;;;;;;77.85;57.95;;;;;;;;;;10063099;28;20052;-77
2023/11/25 02:09:55;;;;;;;127.25;73.20;;;;;;;;;;10061758;28;20068;-77
2023/11/25 02:14:47;;;;;;;84.78;64.78;;;;;;;;;;10062832;28;20030;-77
2023/11/25 02:19:42;;;;;;;93.22;66.50;;;;;;;;;;10061853;28;20059;-77
2023/11/25 02:24:34;;;;;;;78.43;60.72;;;;;;;;;;10059694;28;20053;-77
2023/11/25 02:29:27;;;;;;;73.10;59.08;;;;;;;;;;10060977;28;20045;-77
2023/11/25 02:34:20;;;;;;;80.78;61.50;;;;;;;;;;10064117;28;20049;-77
2023/11/25 02:39:14;;;;;;;253.75;145.30;;;;;;;;;;10069394;28;20320;-77
2023/11/25 02:44:07;;;;;;;70.05;54.67;;;;;;;;;;10069728;28;20392;-77
2023/11/25 02:48:59;;;;;;;71.93;57.75;;;;;;;;;;10067403;28;20072;-77
2023/11/25 02:53:51;;;;;;;71.50;54.13;;;;;;;;;;10069700;28;20423;-77
2023/11/25 02:58:43;;;;;;;63.38;49.65;;;;;;;;;;10069073;28;20045;-77
2023/11/25 03:03:42;;;;;;;59.08;45.53;;;;;;;;;;10068822;28;20364;-77
2023/11/25 03:08:34;;;;;;;53.90;43.83;;;;;;;;;;10059884;28;20124;-76
2023/11/25 03:13:26;;;;;;;50.28;40.75;;;;;;;;;;10066204;28;20037;-76
2023/11/25 03:18:18;;;;;;;39.15;26.75;;;;;;;;;;10066650;28;20049;-76
2023/11/25 03:23:10;;;;;;;21.05;16.00;;;;;;;;;;10066314;28;20037;-76
2023/11/25 03:28:04;;;;;;;11.80;9.80;;;;;;;;;;10058803;28;20033;-76
2023/11/25 03:32:57;;;;;;;169.73;79.53;;;;;;;;;;10068110;28;20045;-76
2023/11/25 03:37:49;;;;;;;327.48;112.88;;;;;;;;;;10059560;28;20038;-76
2023/11/25 03:42:44;;;;;;;6.47;4.93;;;;;;;;;;10082706;28;20468;-76
2023/11/25 03:47:36;;;;;;;5.22;4.40;;;;;;;;;;10065792;28;20051;-76
2023/11/25 03:52:28;;;;;;;145.75;76.07;;;;;;;;;;10064188;28;20092;-75
2023/11/25 03:57:21;;;;;;;61.97;17.90;;;;;;;;;;10066695;28;20087;-76
2023/11/25 04:02:13;;;;;;;4.55;3.53;;;;;;;;;;10067026;28;20045;-76
2023/11/25 04:07:05;;;;;;;4.57;3.58;;;;;;;;;;10066367;28;20891;-76
2023/11/25 04:11:57;;;;;;;4.78;4.38;;;;;;;;;;10064033;28;20132;-76
2023/11/25 04:16:50;;;;;;;98.32;45.88;;;;;;;;;;10065400;28;20064;-76
2023/11/25 04:21:45;;;;;;;17.65;3.20;;;;;;;;;;10066115;28;20045;-76
2023/11/25 04:26:40;;;;;;;4.93;3.17;;;;;;;;;;10065578;28;20056;-76
2023/11/25 04:31:32;;;;;;;206.75;77.72;;;;;;;;;;10066143;28;20045;-77
2023/11/25 04:36:24;;;;;;;134.82;41.05;;;;;;;;;;10066703;28;20376;-76
2023/11/25 04:41:16;;;;;;;13.23;12.27;;;;;;;;;;10061704;28;20526;-76
2023/11/25 04:46:11;;;;;;;162.80;61.97;;;;;;;;;;10054142;28;20437;-75
2023/11/25 04:51:04;;;;;;;3.75;1.80;;;;;;;;;;10054505;28;20046;-75
2023/11/25 04:55:55;;;;;;;210.30;60.05;;;;;;;;;;10051983;28;20536;-75
2023/11/25 05:00:47;;;;;;;1.75;1.65;;;;;;;;;;10053327;28;20053;-75
2023/11/25 05:05:39;;;;;;;66.35;19.52;;;;;;;;;;10051889;28;20038;-75
2023/11/25 05:10:32;;;;;;;139.73;28.73;;;;;;;;;;10055810;28;20526;-75
2023/11/25 05:15:25;;;;;;;49.85;27.42;;;;;;;;;;10067099;28;20038;-74
2023/11/25 05:20:17;;;;;;;216.32;53.72;;;;;;;;;;10065672;28;20409;-75
2023/11/25 05:25:15;;;;;;;278.27;130.25;;;;;;;;;;10065594;28;20076;-75
2023/11/25 05:30:13;;;;;;;50.38;37.50;;;;;;;;;;10065615;28;20038;-75
2023/11/25 05:35:06;;;;;;;341.90;97.57;;;;;;;;;;10065609;28;20506;-76
2023/11/25 05:39:59;;;;;;;932.35;235.88;;;;;;;;;;10065286;28;20041;-75
2023/11/25 05:44:51;;;;;;;1.88;1.77;;;;;;;;;;10066240;28;20117;-75
2023/11/25 05:49:43;;;;;;;144.35;36.88;;;;;;;;;;10065742;28;20052;-75
2023/11/25 05:54:35;;;;;;;200.77;85.90;;;;;;;;;;10065381;28;20100;-75
2023/11/25 05:59:27;;;;;;;209.43;57.13;;;;;;;;;;10065277;28;20092;-74
2023/11/25 06:04:18;;;;;;;2.38;1.35;;;;;;;;;;10065355;28;20037;-74
2023/11/25 06:09:14;;;;;;;69.43;22.45;;;;;;;;;;10068692;28;20033;-74
2023/11/25 06:14:06;;;;;;;58.03;22.25;;;;;;;;;;10072544;28;20509;-74
2023/11/25 06:18:58;;;;;;;64.95;23.58;;;;;;;;;;10071467;28;20077;-75
2023/11/25 06:23:50;;;;;;;2.17;2.08;;;;;;;;;;10071378;28;20037;-74
2023/11/25 06:28:45;;;;;;;930.33;258.30;;;;;;;;;;10070992;28;20057;-74
2023/11/25 06:33:38;;;;;;;1.30;1.30;;;;;;;;;;10070039;28;20046;-74
2023/11/25 06:38:30;;;;;;;15.93;11.32;;;;;;;;;;10070545;28;20404;-74
2023/11/25 06:43:24;;;;;;;1.15;1.15;;;;;;;;;;10068960;28;20375;-74
2023/11/25 06:48:25;;;;;;;142.27;71.80;;;;;;;;;;10069086;28;20048;-73
2023/11/25 06:53:18;;;;;;;1.40;1.30;;;;;;;;;;10069764;28;20082;-73
2023/11/25 06:58:13;;;;;;;11.63;11.00;;;;;;;;;;10069534;28;20050;-73
2023/11/25 07:03:05;;;;;;;2.78;1.40;;;;;;;;;;10069549;28;20037;-74
2023/11/25 07:07:57;;;;;;;17.05;3.35;;;;;;;;;;10069447;28;20045;-73
2023/11/25 07:12:50;;;;;;;1.25;1.25;;;;;;;;;;10066691;28;20057;-74
2023/11/25 07:17:42;;;;;;;1.30;1.30;;;;;;;;;;10021809;28;1288967;-74
2023/11/25 07:22:34;;;;;;;2.45;1.20;;;;;;;;;;10068233;28;20392;-74
2023/11/25 07:27:26;;;;;;;185.98;78.43;;;;;;;;;;10068437;28;20041;-73
2023/11/25 07:32:20;;;;;;;46.42;19.92;;;;;;;;;;10068168;28;20053;-73
2023/11/25 07:37:12;;;;;;;107.30;32.30;;;;;;;;;;10066587;28;20365;-73
2023/11/25 07:42:04;;;;;;;1.75;1.65;;;;;;;;;;10066548;28;20038;-73
2023/11/25 07:46:58;;;;;;;98.47;30.92;;;;;;;;;;10058966;28;20049;-73
2023/11/25 07:51:50;;;;;;;25.63;12.82;;;;;;;;;;10068310;28;20053;-73
2023/11/25 07:56:42;;;;;;;170.43;79.75;;;;;;;;;;10068904;28;20049;-75
2023/11/25 08:01:33;;;;;;;4.65;1.92;;;;;;;;;;10068626;28;20069;-76
2023/11/25 08:06:26;;;;;;;1.60;1.50;;;;;;;;;;10066211;28;20045;-72
2023/11/25 08:11:25;;;;;;;1.55;1.30;;;;;;;;;;10064853;28;20048;-72
2023/11/25 08:16:18;;;;;;;;;;;;;;;;;;10065360;28;20057;-72
2023/11/25 08:21:10;;;;;;;273.48;92.72;;;;;;;;;;10063776;28;19921;-72
2023/11/25 08:26:02;;;;;;;1.52;1.42;;;;;;;;;;10057875;28;20041;-71
2023/11/25 08:30:54;;;;;;;1.20;1.20;;;;;;;;;;10061103;28;20049;-72
2023/11/25 08:35:46;;;;;;;1.73;1.63;;;;;;;;;;10060345;28;20064;-72
2023/11/25 08:40:40;;;;;;;229.57;62.50;;;;;;;;;;10056767;28;20034;-72
2023/11/25 08:45:37;;;;;;;1.60;1.50;;;;;;;;;;10065611;28;20104;-72
2023/11/25 08:50:29;;;;;;;2.13;1.92;;;;;;;;;;10066704;28;20061;-72
2023/11/25 08:55:22;;;;;;;2.03;1.85;;;;;;;;;;10063547;28;20049;-72
2023/11/25 09:00:14;;;;;;;1.73;1.63;;;;;;;;;;10065948;28;20045;-72
2023/11/25 09:05:07;;;;;;;14.55;2.85;;;;;;;;;;10065522;28;20117;-72
2023/11/25 09:10:05;;;;;;;81.25;46.03;;;;;;;;;;10065593;28;20045;-72
2023/11/25 09:14:57;;;;;;;91.00;51.17;;;;;;;;;;10064369;28;20468;-72
2023/11/25 09:19:49;;;;;;;1.63;1.50;;;;;;;;;;10064973;28;20064;-71
2023/11/25 09:24:41;;;;;;;1.48;1.33;;;;;;;;;;10066887;28;20099;-72
2023/11/25 09:29:36;;;;;;;64.47;18.98;;;;;;;;;;10066630;28;20033;-71
2023/11/25 09:34:28;;;;;;;1.20;1.20;;;;;;;;;;10066220;28;20041;-75
2023/11/25 09:39:20;;;;;;;1.88;1.33;;;;;;;;;;10066585;28;20079;-72
2023/11/25 09:44:14;;;;;;;2.83;1.58;;;;;;;;;;10061995;28;20421;-72
2023/11/25 09:49:06;;;;;;;1.40;1.25;;;;;;;;;;10060839;28;20060;-72
2023/11/25 09:54:04;;;;;;;2.70;1.55;;;;;;;;;;10063930;28;20140;-71
2023/11/25 09:58:56;;;;;;;6.70;6.05;;;;;;;;;;10059083;28;20045;-72
2023/11/25 10:03:50;;;;;;;1.50;1.40;;;;;;;;;;10058145;28;20472;-72
2023/11/25 10:08:42;;;;;;;1.63;1.50;;;;;;;;;;10059190;28;20096;-72
2023/11/25 10:13:35;;;;;;;1.63;1.50;;;;;;;;;;10059301;28;20049;-72
2023/11/25 10:18:28;;;;;;;2.47;2.25;;;;;;;;;;10061690;28;20050;-72
2023/11/25 10:23:26;;;;;;;499.42;198.27;;;;;;;;;;10061823;28;20096;-72
2023/11/25 10:28:25;;;;;;;2.95;1.92;;;;;;;;;;10061772;28;20086;-72
2023/11/25 10:33:17;;;;;;;2.35;1.52;;;;;;;;;;10060923;28;20042;-72
2023/11/25 10:38:10;;;;;;;1.55;1.45;;;;;;;;;;10063367;28;20416;-72
2023/11/25 10:43:04;;;;;;;2.38;2.17;;;;;;;;;;10060704;28;20049;-72
2023/11/25 10:47:57;;;;;;;2.13;1.25;;;;;;;;;;10059953;28;20466;-73
2023/11/25 10:52:50;;;;;;;2.30;2.15;;;;;;;;;;10061581;28;20084;-72
2023/11/25 10:57:44;;;;;;;7.20;2.17;;;;;;;;;;10067824;28;20045;-68
2023/11/25 11:02:50;;;;;;;3.35;1.50;;;;;;;;;;10067926;28;20107;-74
2023/11/25 11:07:47;;;;;;;2.13;1.83;;;;;;;;;;10068677;28;20134;-72
2023/11/25 11:12:43;;;;;;;4.82;3.45;;;;;;;;;;10055851;28;20483;-73
2023/11/25 11:17:48;;;;;;;6.18;4.47;;;;;;;;;;10061908;28;20076;-72
2023/11/25 11:22:44;;;;;;;4.72;4.05;;;;;;;;;;10051343;28;20433;-72
2023/11/25 11:27:55;;;;;;;4.45;1.85;;;;;;;;;;10066992;28;20484;-73
2023/11/25 11:32:47;;;;;;;20.30;8.90;;;;;;;;;;10066765;28;20422;-72
2023/11/25 11:37:47;;;;;;;2.55;2.35;;;;;;;;;;10065378;28;20115;-72
2023/11/25 11:42:40;;;;;;;4.70;3.25;;;;;;;;;;10066265;28;20053;-72
2023/11/25 11:47:32;;;;;;;19.63;5.03;;;;;;;;;;10064879;28;20330;-71
2023/11/25 11:52:24;;;;;;;2.63;2.17;;;;;;;;;;10064355;28;20077;-71
2023/11/25 11:57:17;;;;;;;5.82;3.83;;;;;;;;;;10064648;28;20038;-68
2023/11/25 12:02:10;;;;;;;2.97;2.50;;;;;;;;;;10065824;28;20046;-70
2023/11/25 12:07:02;;;;;;;3.22;2.92;;;;;;;;;;10060853;28;20107;-68
2023/11/25 12:12:00;;;;;;;2.88;2.13;;;;;;;;;;10068284;28;20073;-69
2023/11/25 12:16:52;;;;;;;1.73;1.63;;;;;;;;;;10067103;28;20057;-69
2023/11/25 12:21:44;;;;;;;1.60;1.50;;;;;;;;;;10066368;28;20103;-68
2023/11/25 12:26:36;;;;;;;1.60;1.50;;;;;;;;;;10067990;28;20045;-69
2023/11/25 12:31:28;;;;;;;76.43;45.38;;;;;;;;;;10066822;28;20045;-68
2023/11/25 12:36:21;;;;;;;142.45;47.90;;;;;;;;;;10066898;28;20037;-69
2023/11/25 12:41:15;;;;;;;245.82;73.20;;;;;;;;;;10067130;28;20053;-68
2023/11/25 12:46:10;;;;;;;140.60;77.85;;;;;;;;;;10066539;28;20133;-69
2023/11/25 12:51:06;;;;;;;3.35;1.77;;;;;;;;;;10067122;28;20136;-69
2023/11/25 12:55:59;;;;;;;11.25;10.55;;;;;;;;;;10067687;28;20049;-70
2023/11/25 13:00:59;;;;;;;4.03;1.80;;;;;;;;;;10067278;28;20076;-70
2023/11/25 13:05:57;;;;;;;174.88;101.10;;;;;;;;;;10067853;28;20051;-70
2023/11/25 13:10:49;;;;;;;97.10;72.95;;;;;;;;;;10067058;28;20037;-70
2023/11/25 13:15:42;;;;;;;40.17;38.00;;;;;;;;;;10066624;28;20064;-70
2023/11/25 13:20:34;;;;;;;3.72;3.05;;;;;;;;;;10065565;28;20473;-71
2023/11/25 13:25:26;;;;;;;3.50;3.03;;;;;;;;;;10065754;28;20199;-71
2023/11/25 13:30:17;;;;;;;1.27;1.20;;;;;;;;;;10066631;28;20423;-69
2023/11/25 13:35:09;;;;;;;154.73;75.00;;;;;;;;;;10066010;28;20526;-71
2023/11/25 13:40:06;;;;;;;33.63;27.83;;;;;;;;;;10066120;28;20077;-70
2023/11/25 13:44:58;;;;;;;86.00;23.75;;;;;;;;;;10064643;28;20472;-70
2023/11/25 13:49:53;;;;;;;52.22;27.17;;;;;;;;;;10049823;28;20041;-71
2023/11/25 13:54:45;;;;;;;217.15;86.50;;;;;;;;;;10062774;28;20092;-70
2023/11/25 13:59:37;;;;;;;2.30;1.70;;;;;;;;;;10061988;28;20075;-70
2023/11/25 14:04:31;;;;;;;21.38;19.92;;;;;;;;;;10065287;28;20073;-70
2023/11/25 14:09:23;;;;;;;2.15;1.95;;;;;;;;;;10066272;28;20367;-70
2023/11/25 14:14:15;;;;;;;460.30;237.30;;;;;;;;;;10065262;28;20532;-71
2023/11/25 14:19:07;;;;;;;3.90;3.60;;;;;;;;;;10065785;28;20076;-70
2023/11/25 14:24:00;;;;;;;1.42;1.33;;;;;;;;;;10065365;28;20516;-70
2023/11/25 14:28:52;;;;;;;4.90;2.60;;;;;;;;;;10066580;28;20456;-70
2023/11/25 14:33:44;;;;;;;5.03;4.57;;;;;;;;;;10073785;28;20048;-70
2023/11/25 14:38:36;;;;;;;16.60;15.43;;;;;;;;;;10072806;28;20455;-70
2023/11/25 14:43:28;;;;;;;5.22;4.82;;;;;;;;;;10072866;28;20045;-70
2023/11/25 14:48:20;;;;;;;3.97;3.50;;;;;;;;;;10072979;28;20376;-70
2023/11/25 14:53:13;;;;;;;2.08;1.73;;;;;;;;;;10063303;28;20084;-70
2023/11/25 14:58:05;;;;;;;189.98;102.38;;;;;;;;;;10064881;28;20045;-70
2023/11/25 15:02:57;;;;;;;2.28;2.08;;;;;;;;;;10064699;28;20038;-71
2023/11/25 15:07:49;;;;;;;9.60;8.90;;;;;;;;;;10067245;28;20045;-72
2023/11/25 15:12:41;;;;;;;3.33;3.00;;;;;;;;;;10063179;28;20056;-71
2023/11/25 15:17:33;;;;;;;10.73;7.72;;;;;;;;;;10065857;28;20049;-70
2023/11/25 15:22:27;;;;;;;15.60;8.80;;;;;;;;;;10065442;28;20088;-68
2023/11/25 15:27:19;;;;;;;6.50;4.22;;;;;;;;;;10067477;28;20413;-68
2023/11/25 15:32:10;;;;;;;5.53;2.25;;;;;;;;;;10068909;28;20160;-69
2023/11/25 15:37:02;;;;;;;3.35;2.65;;;;;;;;;;10069153;28;20061;-68
2023/11/25 15:41:54;;;;;;;7.40;4.82;;;;;;;;;;10069139;28;20099;-68
2023/11/25 15:46:46;;;;;;;3.63;2.53;;;;;;;;;;10069843;28;20534;-68
2023/11/25 15:51:39;;;;;;;4.80;4.00;;;;;;;;;;10069347;28;20049;-69
2023/11/25 15:56:31;;;;;;;7.78;6.97;;;;;;;;;;10068899;28;20081;-69
2023/11/25 16:01:23;;;;;;;3.05;2.53;;;;;;;;;;10067922;28;20132;-69
2023/11/25 16:06:15;;;;;;;3.72;2.28;;;;;;;;;;10068407;28;20054;-69
2023/11/25 16:11:07;;;;;;;2.67;2.20;;;;;;;;;;10068414;28;20076;-69
2023/11/25 16:15:59;;;;;;;5.43;2.30;;;;;;;;;;10068152;28;20050;-69
2023/11/25 16:20:51;;;;;;;1.80;1.67;;;;;;;;;;10068008;28;20045;-69
2023/11/25 16:25:43;;;;;;;8.40;4.00;;;;;;;;;;10068406;28;20427;-69
2023/11/25 16:30:35;;;;;;;2.03;1.83;;;;;;;;;;10067140;28;20121;-69
2023/11/25 16:35:28;;;;;;;3.50;2.45;;;;;;;;;;10067824;28;20479;-69
2023/11/25 16:40:22;;;;;;;5.05;4.10;;;;;;;;;;10067644;28;20110;-69
2023/11/25 16:45:16;;;;;;;25.75;7.03;;;;;;;;;;10067302;28;20041;-69
2023/11/25 16:50:08;;;;;;;2.50;2.30;;;;;;;;;;10067332;28;20469;-69
2023/11/25 16:55:00;;;;;;;5.60;1.90;;;;;;;;;;10066793;28;20076;-69
2023/11/25 16:59:55;;;;;;;5.13;2.88;;;;;;;;;;10066427;28;20140;-69
2023/11/25 17:04:47;;;;;;;135.60;60.53;;;;;;;;;;10066762;28;20424;-69
2023/11/25 17:09:39;;;;;;;1.85;1.70;;;;;;;;;;10066420;28;20052;-68
2023/11/25 17:14:31;;;;;;;2.47;1.98;;;;;;;;;;10066097;28;20049;-69
2023/11/25 17:19:23;;;;;;;1.88;1.73;;;;;;;;;;10065449;28;20080;-69
2023/11/25 17:24:15;;;;;;;82.10;42.83;;;;;;;;;;10065752;28;20073;-69
2023/11/25 17:29:07;;;;;;;1.85;1.75;;;;;;;;;;10064848;28;20057;-68
2023/11/25 17:33:59;;;;;;;1.88;1.55;;;;;;;;;;10065765;28;20423;-69
2023/11/25 17:38:51;;;;;;;3.15;1.63;;;;;;;;;;10065488;28;20056;-69
2023/11/25 17:43:45;;;;;;;4.38;3.75;;;;;;;;;;10066176;28;20045;-69
2023/11/25 17:48:37;;;;;;;2.50;2.30;;;;;;;;;;10066491;28;20049;-69
2023/11/25 17:53:28;;;;;;;1.50;1.40;;;;;;;;;;10066536;28;20045;-68
2023/11/25 17:58:20;;;;;;;1.80;1.70;;;;;;;;;;10065914;28;20043;-68
2023/11/25 18:03:13;;;;;;;4.13;3.15;;;;;;;;;;10065215;28;20041;-68
2023/11/25 18:08:05;;;;;;;2.50;2.30;;;;;;;;;;10065288;28;20073;-68
2023/11/25 18:12:57;;;;;;;98.45;76.68;;;;;;;;;;10066598;28;20457;-69
2023/11/25 18:17:49;;;;;;;2.35;2.15;;;;;;;;;;10066291;28;20140;-68
2023/11/25 18:22:41;;;;;;;2.00;1.80;;;;;;;;;;10066102;28;20464;-69
2023/11/25 18:27:34;;;;;;;3.50;2.17;;;;;;;;;;10065673;28;20523;-70
2023/11/25 18:32:25;;;;;;;5.80;4.53;;;;;;;;;;10062599;28;20052;-71
2023/11/25 18:37:17;;;;;;;46.63;42.10;;;;;;;;;;10049882;28;20080;-70
2023/11/25 18:42:09;;;;;;;3.45;2.63;;;;;;;;;;10052238;28;20481;-71
2023/11/25 18:47:01;;;;;;;3.45;3.08;;;;;;;;;;10064159;28;20065;-70
2023/11/25 18:51:59;;;;;;;18.30;16.85;;;;;;;;;;10063760;28;20045;-70
2023/11/25 18:56:51;;;;;;;21.77;20.58;;;;;;;;;;10062782;28;20103;-70
2023/11/25 19:01:43;;;;;;;15.27;14.27;;;;;;;;;;10063434;28;20136;-70
2023/11/25 19:06:35;;;;;;;2.63;2.17;;;;;;;;;;10063286;28;20132;-70
2023/11/25 19:11:26;;;;;;;4.07;3.30;;;;;;;;;;10063002;28;20045;-71
2023/11/25 19:16:19;;;;;;;5.82;5.43;;;;;;;;;;10065973;28;20041;-70
2023/11/25 19:21:11;;;;;;;4.43;3.08;;;;;;;;;;10070154;28;20073;-71
2023/11/25 19:26:03;;;;;;;3.95;2.75;;;;;;;;;;10069928;28;20048;-71
2023/11/25 19:30:55;;;;;;;8.13;6.13;;;;;;;;;;10069410;28;20053;-70
2023/11/25 19:35:47;;;;;;;6.47;2.70;;;;;;;;;;10069886;28;20060;-70
2023/11/25 19:40:39;;;;;;;1.83;1.73;;;;;;;;;;10069325;28;20060;-70
2023/11/25 19:45:31;;;;;;;2.95;2.53;;;;;;;;;;10069252;28;20059;-70
2023/11/25 19:50:24;;;;;;;2.65;2.45;;;;;;;;;;10068833;28;20037;-70
2023/11/25 19:55:16;;;;;;;2.35;2.00;;;;;;;;;;10069006;28;20047;-70
2023/11/25 20:00:09;;;;;;;5.30;2.55;;;;;;;;;;10070405;28;20041;-70
2023/11/25 20:05:05;;;;;;;2.42;2.22;;;;;;;;;;10070145;28;20053;-70
2023/11/25 20:09:57;;;;;;;2.38;2.17;;;;;;;;;;10069649;28;20050;-70
2023/11/25 20:14:50;;;;;;;2.88;2.58;;;;;;;;;;10069484;28;20457;-70
2023/11/25 20:19:43;;;;;;;1.65;1.55;;;;;;;;;;10069222;28;20050;-70
2023/11/25 20:24:35;;;;;;;2.60;1.98;;;;;;;;;;10069273;28;20472;-70
2023/11/25 20:29:27;;;;;;;2.22;1.60;;;;;;;;;;10068749;28;20526;-70
2023/11/25 20:34:19;;;;;;;471.35;142.18;;;;;;;;;;10068582;28;20080;-70
2023/11/25 20:39:12;;;;;;;2.28;1.55;;;;;;;;;;10068705;28;20052;-70
2023/11/25 20:44:04;;;;;;;1.70;1.60;;;;;;;;;;10068732;28;20495;-71
2023/11/25 20:48:56;;;;;;;2.15;2.00;;;;;;;;;;10067952;28;20095;-71
2023/11/25 20:53:50;;;;;;;2.45;2.25;;;;;;;;;;10068402;28;20041;-71
2023/11/25 20:58:42;;;;;;;1.35;1.35;;;;;;;;;;10068172;28;20071;-71
2023/11/25 21:03:34;;;;;;;2.92;1.90;;;;;;;;;;10067440;28;20729;-70
2023/11/25 21:08:26;;;;;;;2.53;2.33;;;;;;;;;;10067702;28;20128;-70
2023/11/25 21:13:18;;;;;;;3.08;2.40;;;;;;;;;;10067448;28;20045;-71
2023/11/25 21:18:10;;;;;;;3.97;2.30;;;;;;;;;;10067006;28;20054;-71
2023/11/25 21:23:02;;;;;;;4.07;3.30;;;;;;;;;;10067424;28;20073;-70
2023/11/25 21:27:56;;;;;;;5.22;3.05;;;;;;;;;;10055819;28;20095;-71
2023/11/25 21:32:48;;;;;;;2.40;2.20;;;;;;;;;;10066397;28;20041;-70
2023/11/25 21:37:40;;;;;;;2.00;1.90;;;;;;;;;;10066970;28;20073;-70
2023/11/25 21:42:32;;;;;;;2.30;2.10;;;;;;;;;;10066241;28;20049;-70
2023/11/25 21:47:24;;;;;;;2.10;1.90;;;;;;;;;;10066348;28;20516;-71
2023/11/25 21:52:16;;;;;;;1.27;1.17;;;;;;;;;;10066808;28;20069;-70
2023/11/25 21:57:08;;;;;;;1.20;1.20;;;;;;;;;;10066229;28;20486;-70
2023/11/25 22:02:00;;;;;;;1.48;1.42;;;;;;;;;;10066029;28;20045;-71
2023/11/25 22:06:54;;;;;;;1.88;1.50;;;;;;;;;;10066488;28;20099;-70
2023/11/25 22:11:46;;;;;;;1.48;1.38;;;;;;;;;;10066262;28;20046;-70
2023/11/25 22:16:38;;;;;;;2.08;1.30;;;;;;;;;;10065135;28;20373;-70
2023/11/25 22:21:29;;;;;;;1.30;1.20;;;;;;;;;;10066450;28;20034;-71
2023/11/25 22:26:34;;;;;;;1.92;1.58;;;;;;;;;;10065726;28;20042;-71
2023/11/25 22:31:26;;;;;;;1.40;1.30;;;;;;;;;;10065327;28;20045;-71
2023/11/25 22:36:28;;;;;;;1.45;1.38;;;;;;;;;;10065625;28;20121;-71
2023/11/25 22:41:20;;;;;;;1.55;1.45;;;;;;;;;;10065313;28;20056;-71
2023/11/25 22:46:20;;;;;;;2.13;1.23;;;;;;;;;;10064980;28;20631;-70
2023/11/25 22:51:13;;;;;;;1.10;1.10;;;;;;;;;;10068684;28;20559;-70
2023/11/25 22:56:05;;;;;;;1.55;1.45;;;;;;;;;;10072609;28;20136;-71
2023/11/25 23:01:00;;;;;;;1.65;1.52;;;;;;;;;;10073107;28;20045;-71
2023/11/25 23:05:52;;;;;;;1.40;1.40;;;;;;;;;;10059958;28;20088;-71
2023/11/25 23:10:44;;;;;;;1.10;1.10;;;;;;;;;;10072216;28;20407;-71
2023/11/25 23:15:36;;;;;;;2.28;1.60;;;;;;;;;;10072370;28;20112;-71
2023/11/25 23:20:28;;;;;;;1.65;1.55;;;;;;;;;;10071335;28;20431;-70
2023/11/25 23:25:20;;;;;;;1.45;1.35;;;;;;;;;;10071992;28;20045;-71
2023/11/25 23:30:12;;;;;;;1.88;1.42;;;;;;;;;;10071785;28;20464;-71
2023/11/25 23:35:04;;;;;;;2.40;2.05;;;;;;;;;;10071277;28;20409;-71
2023/11/25 23:39:56;;;;;;;1.30;1.27;;;;;;;;;;10071756;28;20371;-71
2023/11/25 23:44:48;;;;;;;1.40;1.30;;;;;;;;;;10071183;28;20041;-71
2023/11/25 23:49:40;;;;;;;1.77;1.67;;;;;;;;;;10070821;28;20137;-71
2023/11/25 23:54:32;;;;;;;3.42;2.00;;;;;;;;;;10070584;28;20049;-71
2023/11/25 23:59:25;;;;;;;1.60;1.50;;;;;;;;;;10070124;28;20045;-71
